Avon, CO (81620)

06:00 AM MDT em 27 de Abril de 2015 (GMT -0600)
Whiskey Hill, EagleVail | | Change Station
CLOSE
Current Station
Estação Meteorológica Particular
Location: Avon, CO
Altitude: 7959 ft
Estações Meteorológicas Próximas

Elev 7959 ft 39.61 °N, 106.48 °W | Updated 8 seconds ago

Parcialmente Nublado
Parcialmente Nublado
33.1 °F
Aparente 33 °F
N
0.0
Vento Variável Vento de Norte
Gusts 0.0 mph

Hoje
Máxima -- | Mínima -- °F
--% Possibilidade de Precip.
Ontem
Máxima -- | Mínima -- °F
Precip. -- pol
6:12 AM 7:55 PM
Lua crescente, 64% visible
Pressão 30.12 pol
Visibilidade 10.0 milhas
Nuvens Céu Limpo
Sensação Térmica 33 °F
Ponto de Orvalho 14 °F
Humidade 44%
Chuva 0.00 pol
Altura de Neve Não disponível
UV 0 em vez de 12
Pólen 3.10 em vez de 12
Qualidade do Ar Não disponível
Flu Activity Sporadic
METAR KEGE 271155Z AUTO 00000KT 10SM CLR 00/00 A3012 RMK AO1 70003 10040 20000 52024

More Conditions Fewer Conditions

Pressão 30.12 pol
Visibilidade 10.0 milhas
Nuvens Céu Limpo
Sensação Térmica 33 °F
Ponto de Orvalho 14 °F
Humidade 44%
Chuva 0.00 pol
Altura de Neve Não disponível
UV 0 em vez de 12
Pólen 3.10 em vez de 12
Qualidade do Ar Não disponível
Flu Activity Sporadic
METAR KEGE 271155Z AUTO 00000KT 10SM CLR 00/00 A3012 RMK AO1 70003 10040 20000 52024

More Conditions Fewer Conditions

10-Day Weather Forecast

Almanac

Astronomia

Apr. 27, 2015 Nascer Pôr
Hora atual
Crepúsculo civil
Crepúsculo náutico
Crepúsculo astronómico
Lua
Comprimento da luz visível
Duração do Dia
Tomorrow will be .
, % of the Moon is Illuminated

Extremos de Hoje

situação na parte mais alta situação na parte mais baixa

Community

WunderPhotos

Upload Photos

1,817,284 fotografias inseridas!

WunderBlogs® & News

Nearby

Qualidade do Ar

  Qualidade do Ar Índice da Q.A. Poluente
Not available.

Altura da Neve

Estação altura Altitude

Actividade Sísmisca

Cidade Distância Mag. Hora & Data
Mínima magnitude apresentada é 2.5.

Temperaturas das Águas Costeiras

Local Temperatura

Stations

Estações Meteorológicas Próximas

Localização da Estação Temp. Sensação Térmica Ponto de Orvalho Humidade Vento Precip. Elev Actualizado Tipo